Time;durP1;ratioP1;P1;durP2;ratioP2;P2;SDS_P1;SDS_P2;PMS_P1;PMS_P2;Temp;Humidity;BMP_temperature;BMP_pressure;BME280_temperature;BME280_humidity;BME280_pressure;Samples;Min_cycle;Max_cycle;Signal;HPM_P1;HPM_P2
2022/09/28 00:00:57;;;;;;;7.07;4.07;;;;;;;14.09;100.00;95915.78;5084492;28;20060;-71
2022/09/28 00:03:24;;;;;;;5.47;4.10;;;;;;;14.20;100.00;95924.75;5084630;28;20125;-70
2022/09/28 00:05:51;;;;;;;7.90;3.92;;;;;;;14.18;100.00;95925.19;5085713;28;20124;-69
2022/09/28 00:08:17;;;;;;;5.82;4.20;;;;;;;14.07;100.00;95912.63;5088706;28;20101;-70
2022/09/28 00:10:53;;;;;;;4.72;3.65;;;;;;;14.02;100.00;95925.00;5088490;28;20063;-71
2022/09/28 00:13:19;;;;;;;5.65;3.30;;;;;;;13.87;100.00;95923.66;5088834;28;20080;-70
2022/09/28 00:15:46;;;;;;;7.15;3.40;;;;;;;13.64;100.00;95899.31;5088627;28;20143;-70
2022/09/28 00:18:12;;;;;;;5.50;3.70;;;;;;;13.69;100.00;95911.97;5088768;28;20125;-70
2022/09/28 00:20:39;;;;;;;8.02;3.60;;;;;;;13.76;100.00;95933.34;5086918;28;20048;-71
2022/09/28 00:23:05;;;;;;;6.75;3.47;;;;;;;13.84;100.00;95937.59;5087042;28;20574;-70
2022/09/28 00:25:32;;;;;;;4.20;3.80;;;;;;;13.79;100.00;95943.63;5088590;28;20052;-70
2022/09/28 00:27:59;;;;;;;4.53;3.05;;;;;;;11.53;100.00;95580.75;5088537;28;20090;-70
2022/09/28 00:30:26;;;;;;;4.55;3.75;;;;;;;13.33;100.00;95928.31;5086849;28;20113;-70
2022/09/28 00:32:52;;;;;;;13.23;4.53;;;;;;;13.18;100.00;95932.44;5088469;28;20082;-70
2022/09/28 00:35:19;;;;;;;5.60;3.92;;;;;;;13.32;100.00;95937.88;5088039;28;20144;-68
2022/09/28 00:37:47;;;;;;;8.40;4.00;;;;;;;13.41;100.00;95929.81;5088390;28;20478;-69
2022/09/28 00:40:14;;;;;;;7.00;5.10;;;;;;;13.40;100.00;95933.00;5088136;28;20147;-67
2022/09/28 00:42:41;;;;;;;5.57;4.35;;;;;;;13.03;100.00;95858.75;5088234;28;20044;-70
2022/09/28 00:45:08;;;;;;;3.70;3.40;;;;;;;13.46;100.00;95932.13;5085995;28;20411;-70
2022/09/28 00:47:52;;;;;;;7.25;4.60;;;;;;;13.46;100.00;95932.13;5087667;28;20060;-70
2022/09/28 00:50:24;;;;;;;;;;;;;;;13.47;100.00;95936.50;5088263;28;20079;-69
2022/09/28 00:53:01;;;;;;;7.90;4.25;;;;;;;13.32;100.00;95918.41;5086713;28;19927;-69
2022/09/28 00:55:37;;;;;;;6.78;3.90;;;;;;;13.07;100.00;95867.81;5086338;28;20166;-69
2022/09/28 00:58:08;;;;;;;6.00;4.60;;;;;;;13.43;100.00;95932.97;5086682;28;20094;-69
2022/09/28 01:00:34;;;;;;;6.88;4.20;;;;;;;13.46;100.00;95925.78;5087518;28;20087;-69
2022/09/28 01:03:02;;;;;;;4.82;4.00;;;;;;;13.35;100.00;95936.25;5087935;28;20067;-70
2022/09/28 01:05:29;;;;;;;7.15;3.42;;;;;;;13.09;100.00;95878.53;5087341;28;20127;-70
2022/09/28 01:07:56;;;;;;;5.22;3.85;;;;;;;13.51;100.00;95940.00;5086707;28;20113;-70
2022/09/28 01:10:24;;;;;;;4.25;3.78;;;;;;;13.48;100.00;95929.72;5086150;28;20163;-70
2022/09/28 01:12:50;;;;;;;4.55;4.13;;;;;;;13.46;100.00;95937.72;5087605;28;20112;-69
2022/09/28 01:15:20;;;;;;;6.88;3.83;;;;;;;12.93;100.00;95854.06;5086033;28;20134;-70
2022/09/28 01:17:59;;;;;;;8.55;4.07;;;;;;;12.94;100.00;95864.00;5086691;28;20055;-70
2022/09/28 01:20:33;;;;;;;8.65;3.72;;;;;;;13.33;100.00;95947.78;5085738;28;20583;-71
2022/09/28 01:23:37;;;;;;;5.93;4.25;;;;;;;13.37;100.00;95931.84;5087665;28;20082;-70
2022/09/28 01:26:43;;;;;;;6.78;4.35;;;;;;;13.23;100.00;95929.22;5087389;28;20056;-71
2022/09/28 01:29:16;;;;;;;5.65;4.20;;;;;;;13.13;100.00;95930.13;5087033;28;20060;-70
2022/09/28 01:31:50;;;;;;;3.95;3.55;;;;;;;13.17;100.00;95933.66;5085532;28;20357;-70
2022/09/28 01:34:20;;;;;;;;;;;;;;;13.12;100.00;95928.53;5087191;28;20587;-71
2022/09/28 01:36:54;;;;;;;4.40;3.80;;;;;;;13.13;100.00;95934.91;5087025;28;20370;-70
2022/09/28 01:39:29;;;;;;;4.07;3.65;;;;;;;13.05;100.00;95923.06;5087083;28;20052;-70
2022/09/28 01:42:01;;;;;;;7.05;5.05;;;;;;;12.93;100.00;95923.56;5087311;28;20089;-70
2022/09/28 01:44:36;;;;;;;6.55;4.93;;;;;;;12.58;100.00;95887.00;5086898;28;20159;-70
2022/09/28 01:47:03;;;;;;;4.65;3.75;;;;;;;12.39;100.00;95840.38;5086996;28;20148;-69
2022/09/28 01:49:39;;;;;;;3.90;3.53;;;;;;;12.96;100.00;95942.19;5085298;28;20130;-70
2022/09/28 01:52:17;;;;;;;5.32;3.10;;;;;;;12.96;100.00;95958.84;5086949;28;20072;-70
2022/09/28 01:55:29;;;;;;;5.45;3.55;;;;;;;12.91;100.00;95984.34;5086659;28;20078;-70
2022/09/28 01:57:59;;;;;;;7.13;3.35;;;;;;;12.83;100.00;95927.25;5086527;28;20589;-70
2022/09/28 02:00:27;;;;;;;3.60;2.85;;;;;;;12.85;100.00;95935.94;5086245;28;20429;-70
2022/09/28 02:03:17;;;;;;;5.38;3.67;;;;;;;12.87;100.00;95944.66;5086459;28;20607;-68
2022/09/28 02:05:52;;;;;;;3.83;3.22;;;;;;;12.73;100.00;95927.31;5086399;28;20048;-70
2022/09/28 02:08:27;;;;;;;8.35;2.95;;;;;;;11.84;100.00;95815.44;5086405;28;20592;-69
2022/09/28 02:11:01;;;;;;;4.45;3.17;;;;;;;12.52;100.00;95939.41;5086189;28;20552;-71
2022/09/28 02:13:36;;;;;;;6.93;3.35;;;;;;;12.52;100.00;95956.09;5086204;28;20062;-69
2022/09/28 02:16:15;;;;;;;5.03;3.28;;;;;;;12.37;100.00;95959.38;5086351;28;20084;-70
2022/09/28 02:18:43;;;;;;;10.45;3.78;;;;;;;12.29;100.00;95969.75;5086504;28;20791;-70
2022/09/28 02:21:21;;;;;;;4.43;4.03;;;;;;;12.32;100.00;95957.84;5086253;28;20087;-70
2022/09/28 02:24:02;;;;;;;8.65;5.63;;;;;;;10.07;100.00;95606.34;5086214;28;20080;-68
2022/09/28 02:26:34;;;;;;;10.88;7.13;;;;;;;12.30;100.00;95949.13;5086048;28;20498;-70
2022/09/28 02:29:01;;;;;;;15.52;9.55;;;;;;;12.37;100.00;95960.19;5084915;28;20139;-69
2022/09/28 02:31:28;;;;;;;13.20;10.65;;;;;;;12.10;100.00;95917.53;5084496;28;20048;-69
2022/09/28 02:33:56;;;;;;;13.27;10.27;;;;;;;12.28;100.00;95945.97;5084412;28;20058;-69
2022/09/28 02:36:24;;;;;;;16.08;9.98;;;;;;;12.20;100.00;95939.66;5084234;28;20052;-69
2022/09/28 02:38:52;;;;;;;11.80;8.18;;;;;;;12.24;100.00;95936.88;5085968;28;20155;-69
2022/09/28 02:41:37;;;;;;;12.63;8.75;;;;;;;12.36;100.00;95938.38;5085974;28;20071;-69
2022/09/28 02:44:15;;;;;;;15.80;9.82;;;;;;;12.35;100.00;95934.00;5085612;28;20048;-70
2022/09/28 02:47:15;;;;;;;11.40;7.53;;;;;;;12.32;100.00;95924.50;5084220;28;20048;-69
2022/09/28 02:49:51;;;;;;;10.43;8.98;;;;;;;12.18;100.00;95935.72;5067198;28;20043;-69
2022/09/28 02:52:54;;;;;;;13.95;9.90;;;;;;;12.17;100.00;95943.25;5084319;28;20133;-70
2022/09/28 02:55:39;;;;;;;11.32;7.68;;;;;;;12.13;100.00;95934.19;5085594;28;20166;-70
2022/09/28 02:58:39;;;;;;;16.38;9.70;;;;;;;12.10;100.00;95934.19;5084385;28;20212;-69
2022/09/28 03:01:06;;;;;;;12.63;9.32;;;;;;;12.08;100.00;95944.91;5084655;28;20585;-71
2022/09/28 03:03:41;;;;;;;12.23;7.18;;;;;;;12.04;100.00;95941.38;5085176;28;20139;-70
2022/09/28 03:06:25;;;;;;;8.05;5.10;;;;;;;11.77;100.00;95904.28;5085269;28;20055;-70
2022/09/28 03:09:03;;;;;;;5.15;3.92;;;;;;;11.98;100.00;95946.56;5084097;28;20060;-68
2022/09/28 03:11:48;;;;;;;11.15;4.32;;;;;;;11.92;100.00;95922.41;5053292;28;20087;-70
2022/09/28 03:14:15;;;;;;;5.18;3.47;;;;;;;12.05;100.00;95942.94;5083952;28;20100;-70
2022/09/28 03:16:45;;;;;;;8.85;4.57;;;;;;;11.78;100.00;95922.50;5084995;28;20517;-69
2022/09/28 03:19:13;;;;;;;6.47;4.40;;;;;;;11.37;100.00;95841.09;5084889;28;20105;-68
2022/09/28 03:21:40;;;;;;;5.38;4.10;;;;;;;11.90;100.00;95935.91;5085232;28;20059;-69
2022/09/28 03:24:09;;;;;;;5.38;4.13;;;;;;;12.01;100.00;95953.31;5083384;28;20051;-70
2022/09/28 03:26:38;;;;;;;5.90;4.20;;;;;;;12.05;100.00;95949.31;5085273;28;20143;-70
2022/09/28 03:29:05;;;;;;;6.75;4.43;;;;;;;11.84;100.00;95920.88;5084707;28;20135;-70
2022/09/28 03:31:32;;;;;;;5.72;5.13;;;;;;;11.24;100.00;95851.09;5083400;28;20472;-70
2022/09/28 03:33:59;;;;;;;6.82;4.30;;;;;;;11.99;100.00;95944.56;5084718;28;20052;-70
2022/09/28 03:36:25;;;;;;;5.60;4.35;;;;;;;11.91;100.00;95948.59;5083678;28;20048;-69
2022/09/28 03:38:55;;;;;;;4.95;4.03;;;;;;;11.65;100.00;95910.31;5085059;28;20138;-70
2022/09/28 03:41:26;;;;;;;7.53;3.72;;;;;;;11.92;100.00;95941.84;5084943;28;20146;-71
2022/09/28 03:43:54;;;;;;;12.82;4.03;;;;;;;11.84;100.00;95949.41;5083871;28;20057;-70
2022/09/28 03:46:20;;;;;;;4.88;3.78;;;;;;;11.76;100.00;95958.19;5085096;28;20475;-69
2022/09/28 03:48:47;;;;;;;8.32;5.10;;;;;;;10.94;100.00;95828.66;5085002;28;20089;-69
2022/09/28 03:51:14;;;;;;;11.52;8.32;;;;;;;11.35;100.00;95921.91;5083382;28;20087;-69
2022/09/28 03:53:40;;;;;;;10.65;7.43;;;;;;;11.66;100.00;95953.47;5084886;28;20055;-70
2022/09/28 03:56:12;;;;;;;7.13;5.90;;;;;;;11.55;100.00;95953.50;5084764;28;20135;-70
2022/09/28 03:58:38;;;;;;;11.88;8.63;;;;;;;10.98;100.00;95868.19;5084705;28;20544;-71
2022/09/28 04:01:08;;;;;;;15.48;10.27;;;;;;;11.51;100.00;95958.28;5084437;28;20101;-71
2022/09/28 04:03:44;;;;;;;24.85;13.23;;;;;;;11.54;100.00;95963.00;5084397;28;20242;-71
2022/09/28 04:06:11;;;;;;;24.08;12.27;;;;;;;11.01;100.00;95889.56;5084394;28;20506;-69
2022/09/28 04:08:38;;;;;;;15.05;10.18;;;;;;;11.37;100.00;95963.06;5084624;28;20106;-69
2022/09/28 04:11:05;;;;;;;14.48;8.70;;;;;;;11.36;100.00;95951.22;5085237;28;20105;-70
2022/09/28 04:13:31;;;;;;;17.30;7.82;;;;;;;11.18;100.00;95928.31;5084720;28;20166;-71
2022/09/28 04:16:00;;;;;;;12.88;7.03;;;;;;;11.18;100.00;95919.19;5084688;28;20135;-70
2022/09/28 04:18:28;;;;;;;10.80;5.97;;;;;;;11.53;100.00;95966.19;5084508;28;20070;-70
2022/09/28 04:21:03;;;;;;;9.48;4.88;;;;;;;11.61;100.00;95959.41;5084735;28;20475;-70
2022/09/28 04:23:30;;;;;;;7.60;4.15;;;;;;;11.68;100.00;95964.97;5083031;28;20048;-69
2022/09/28 04:25:56;;;;;;;11.88;4.95;;;;;;;11.62;100.00;95970.09;5084687;28;20087;-70
2022/09/28 04:31:12;;;;;;;10.90;8.75;;;;;;;11.52;100.00;95970.16;5084585;28;20546;-70
2022/09/28 04:33:38;;;;;;;14.23;9.73;;;;;;;11.56;100.00;95982.81;5084073;28;20085;-70
2022/09/28 04:36:05;;;;;;;16.13;10.48;;;;;;;11.50;100.00;95973.34;5084130;28;20071;-70
2022/09/28 04:38:32;;;;;;;16.33;11.20;;;;;;;11.72;100.00;95990.69;5084255;28;20142;-70
2022/09/28 04:41:18;;;;;;;37.20;20.83;;;;;;;11.61;100.00;95984.38;5082900;28;20672;-70
2022/09/28 04:43:48;;;;;;;22.20;14.68;;;;;;;11.77;100.00;95987.50;5084407;28;20090;-70
2022/09/28 04:46:15;;;;;;;20.20;12.43;;;;;;;11.56;100.00;95943.19;5084468;28;20055;-69
2022/09/28 04:48:42;;;;;;;10.82;8.30;;;;;;;11.94;100.00;95986.63;5083976;28;20578;-70
2022/09/28 04:51:09;;;;;;;7.90;6.30;;;;;;;11.95;100.00;96002.06;5082563;28;20055;-71
2022/09/28 04:53:36;;;;;;;9.80;5.50;;;;;;;12.10;100.00;95984.16;5085835;28;20163;-71
2022/09/28 04:56:09;;;;;;;5.68;4.20;;;;;;;12.02;100.00;95990.94;5087758;28;20571;-69
2022/09/28 04:58:36;;;;;;;5.50;3.97;;;;;;;11.69;100.00;95919.38;5087760;28;20048;-69
2022/09/28 05:01:09;;;;;;;4.78;3.75;;;;;;;11.54;100.00;95884.59;5087487;28;20087;-70
2022/09/28 05:03:36;;;;;;;10.05;4.05;;;;;;;12.18;100.00;95963.50;5087671;28;20059;-73
2022/09/28 05:06:05;;;;;;;5.15;3.65;;;;;;;12.55;100.00;96004.50;5087540;28;20067;-72
2022/09/28 05:08:34;;;;;;;9.48;5.05;;;;;;;12.12;100.00;95937.38;5085845;28;20452;-71
2022/09/28 05:11:05;;;;;;;11.70;7.40;;;;;;;12.71;100.00;96008.31;5087258;28;20532;-71
2022/09/28 05:13:40;;;;;;;15.88;9.20;;;;;;;12.77;100.00;96003.91;5085894;28;20055;-69
2022/09/28 05:16:08;;;;;;;9.60;6.55;;;;;;;12.83;100.00;96010.63;5085438;28;20073;-70
2022/09/28 05:18:35;;;;;;;12.05;6.28;;;;;;;12.89;100.00;96008.16;5085498;28;20051;-71
2022/09/28 05:21:02;;;;;;;10.63;5.35;;;;;;;12.44;100.00;95937.91;5085336;28;20052;-71
2022/09/28 05:23:28;;;;;;;9.55;4.80;;;;;;;12.98;100.00;95998.16;5085462;28;20481;-70
2022/09/28 05:25:55;;;;;;;7.47;4.88;;;;;;;13.18;100.00;96009.53;5087222;28;20142;-68
2022/09/28 05:28:25;;;;;;;5.68;4.60;;;;;;;13.24;100.00;95989.22;5087588;28;20497;-71
2022/09/28 05:30:52;;;;;;;7.50;4.30;;;;;;;13.51;100.00;96012.34;5087283;28;20048;-71
2022/09/28 05:33:19;;;;;;;7.95;5.15;;;;;;;13.37;100.00;95981.91;5087084;28;20101;-70
2022/09/28 05:35:45;;;;;;;5.25;4.70;;;;;;;13.66;100.00;96013.78;5085487;28;20137;-72
2022/09/28 05:38:18;;;;;;;5.90;4.80;;;;;;;13.83;100.00;96014.75;5087364;28;20052;-72
2022/09/28 05:40:45;;;;;;;9.02;5.30;;;;;;;13.94;100.00;96034.13;5086680;28;20494;-71
2022/09/28 05:43:12;;;;;;;12.55;6.40;;;;;;;13.65;100.00;96011.41;5080684;28;20043;-70
2022/09/28 05:45:39;;;;;;;10.60;6.15;;;;;;;14.20;100.00;96019.44;5084672;28;20147;-72
2022/09/28 05:48:05;;;;;;;10.88;7.03;;;;;;;12.94;100.00;95802.06;5086784;28;20434;-67
2022/09/28 05:50:32;;;;;;;4.85;3.95;;;;;;;14.43;100.00;96016.78;5085768;28;20357;-63
2022/09/28 05:53:02;;;;;;;9.23;4.30;;;;;;;13.34;100.00;95849.22;5086646;28;20435;-72
2022/09/28 05:55:29;;;;;;;5.88;4.78;;;;;;;14.46;100.00;95954.63;5085836;28;21135;-72
2022/09/28 05:58:04;;;;;;;9.10;4.13;;;;;;;15.05;100.00;96053.22;5102845;27;20051;-73
2022/09/28 06:00:32;;;;;;;6.50;4.45;;;;;;;15.19;100.00;96017.53;5084790;28;20083;-69
2022/09/28 06:03:04;;;;;;;7.45;4.25;;;;;;;15.25;100.00;96000.31;5067316;28;20152;-73
2022/09/28 06:05:35;;;;;;;6.82;4.00;;;;;;;15.51;100.00;96014.19;5080220;28;20051;-67
2022/09/28 06:08:04;;;;;;;9.70;4.30;;;;;;;15.66;100.00;96015.50;5084844;28;20134;-68
2022/09/28 06:10:32;;;;;;;5.18;3.67;;;;;;;15.80;99.74;96032.00;5083944;28;20052;-70
2022/09/28 06:12:59;;;;;;;4.63;3.50;;;;;;;14.97;100.00;95876.09;5086242;28;20044;-67
2022/09/28 06:15:28;;;;;;;3.42;3.20;;;;;;;16.07;98.49;96018.66;5084198;28;20051;-65
2022/09/28 06:18:13;;;;;;;4.88;3.30;;;;;;;15.73;97.57;95931.59;5084693;28;20205;-61
2022/09/28 06:20:41;;;;;;;3.42;3.13;;;;;;;16.04;96.49;95951.69;5083988;28;20047;-65
2022/09/28 06:23:09;;;;;;;3.78;2.80;;;;;;;16.36;94.92;95996.50;5075020;28;20056;-69
2022/09/28 06:25:36;;;;;;;6.15;3.50;;;;;;;15.79;93.09;95879.59;5084072;28;20079;-70
2022/09/28 06:28:11;;;;;;;4.28;3.33;;;;;;;14.84;90.73;95732.97;5083584;28;20070;-72
2022/09/28 06:30:38;;;;;;;4.05;3.65;;;;;;;16.19;90.76;95953.75;5085448;28;20059;-79
2022/09/28 06:33:07;;;;;;;5.90;4.10;;;;;;;16.54;89.00;95941.78;5085754;28;20056;-69
2022/09/28 06:35:34;;;;;;;9.45;3.47;;;;;;;16.92;89.50;95983.19;5085412;28;20102;-69
2022/09/28 06:38:01;;;;;;;4.07;3.67;;;;;;;16.67;88.92;96002.59;5083172;28;20047;-65
2022/09/28 06:40:28;;;;;;;5.53;3.65;;;;;;;16.63;88.75;95971.16;5085640;28;20079;-76
2022/09/28 06:43:11;;;;;;;5.75;3.38;;;;;;;17.16;89.49;96015.38;5085233;28;20052;-71
2022/09/28 06:45:38;;;;;;;4.35;3.65;;;;;;;17.16;90.33;96029.38;5085434;28;20356;-64
2022/09/28 06:48:05;;;;;;;5.68;4.03;;;;;;;17.37;89.25;96026.81;5083431;28;20052;-72
2022/09/28 06:50:36;;;;;;;3.90;3.60;;;;;;;15.92;88.26;95777.19;5084918;28;20110;-71
2022/09/28 06:53:05;;;;;;;4.35;3.95;;;;;;;17.32;87.39;95964.97;5085287;28;20105;-74
2022/09/28 06:55:32;;;;;;;7.70;3.47;;;;;;;17.00;87.43;95883.88;5083160;28;20472;-73
2022/09/28 06:58:01;;;;;;;3.88;3.58;;;;;;;17.58;86.85;95933.88;5083278;28;20227;-72
2022/09/28 07:00:30;;;;;;;7.22;4.32;;;;;;;18.03;85.36;96023.47;5084094;28;20083;-63
2022/09/28 07:02:57;;;;;;;6.45;3.80;;;;;;;17.90;87.75;96020.63;5074058;28;20750;-64
2022/09/28 07:05:27;;;;;;;12.75;4.32;;;;;;;18.29;87.67;96025.09;5076348;28;20112;-68
2022/09/28 07:07:55;;;;;;;6.03;3.80;;;;;;;18.41;86.61;96032.78;5083590;28;20139;-61
2022/09/28 07:10:27;;;;;;;12.30;3.90;;;;;;;18.55;82.72;96025.94;5083405;28;20048;-61
2022/09/28 07:12:55;;;;;;;4.28;3.85;;;;;;;18.14;85.36;96023.94;5083805;28;20514;-75
2022/09/28 07:15:24;;;;;;;5.20;3.83;;;;;;;18.25;84.79;96018.81;5081079;28;20412;-77
2022/09/28 07:17:59;;;;;;;5.20;3.33;;;;;;;17.73;83.43;95953.88;5081394;28;20135;-68
2022/09/28 07:20:29;;;;;;;16.30;8.02;;;;;;;18.16;86.09;96021.50;5083727;28;20052;-70
2022/09/28 07:23:00;;;;;;;4.47;3.92;;;;;;;18.33;83.08;96014.56;5083281;28;20518;-74
2022/09/28 07:25:46;;;;;;;5.15;4.07;;;;;;;18.16;80.38;95964.63;5083518;28;20044;-70
2022/09/28 07:28:14;;;;;;;5.25;4.82;;;;;;;18.87;82.49;96025.75;5083341;28;20060;-71
2022/09/28 07:30:41;;;;;;;3.63;3.33;;;;;;;18.77;80.11;96005.22;5084013;28;20095;-70
2022/09/28 07:33:11;;;;;;;5.40;3.30;;;;;;;19.04;78.40;96013.97;5082776;28;20056;-69
2022/09/28 07:35:40;;;;;;;5.00;4.50;;;;;;;19.31;78.26;96008.69;5084357;28;20048;-65
2022/09/28 07:38:09;;;;;;;4.30;3.90;;;;;;;19.48;76.85;96031.78;5083880;28;20183;-67
2022/09/28 07:43:21;;;;;;;6.43;3.75;;;;;;;19.16;72.80;95926.13;5084382;28;20064;-66
2022/09/28 07:45:51;;;;;;;4.03;3.63;;;;;;;18.68;73.08;95862.03;5083449;28;20086;-66
2022/09/28 07:48:18;;;;;;;4.15;3.75;;;;;;;18.03;73.05;95732.81;5084113;28;20058;-66
2022/09/28 07:50:51;;;;;;;4.45;3.53;;;;;;;19.84;74.47;96014.50;5082352;28;20054;-65
2022/09/28 07:53:19;;;;;;;4.75;3.72;;;;;;;19.88;72.96;95975.78;5084417;28;20084;-66
2022/09/28 07:55:52;;;;;;;8.60;4.93;;;;;;;20.36;72.69;96017.41;5083533;28;20482;-66
2022/09/28 07:58:19;;;;;;;4.65;3.47;;;;;;;20.18;67.62;96000.41;5083032;28;20056;-66
2022/09/28 08:00:47;;;;;;;4.82;3.55;;;;;;;20.27;68.36;95997.66;5082270;28;20067;-66
2022/09/28 08:03:21;;;;;;;6.28;3.90;;;;;;;20.58;67.15;96020.97;5084169;28;20064;-64
2022/09/28 08:05:48;;;;;;;;;;;;;;;20.81;67.51;96015.63;5084584;28;20156;-66
2022/09/28 08:08:15;;;;;;;4.63;4.07;;;;;;;20.96;66.48;96022.28;5084172;28;19924;-66
2022/09/28 08:10:42;;;;;;;5.35;3.63;;;;;;;20.78;66.68;96010.13;5082266;28;20105;-67
2022/09/28 08:13:13;;;;;;;4.15;3.80;;;;;;;21.18;64.12;96025.03;5083823;28;20114;-66
2022/09/28 08:15:41;;;;;;;4.35;3.97;;;;;;;21.38;63.26;96024.63;5083769;28;20062;-66
2022/09/28 08:18:08;;;;;;;6.95;3.97;;;;;;;20.96;62.15;95987.69;5084170;28;20050;-66
2022/09/28 08:23:20;;;;;;;5.80;4.90;;;;;;;21.68;61.06;96026.56;5084066;28;20064;-67
2022/09/28 08:25:48;;;;;;;23.92;15.85;;;;;;;21.52;61.52;95979.72;5082480;28;20079;-66
2022/09/28 08:28:16;;;;;;;29.10;16.33;;;;;;;21.94;61.17;96023.00;5087631;28;20048;-65
2022/09/28 08:30:44;;;;;;;21.08;14.30;;;;;;;22.12;61.33;96023.03;5088036;28;20044;-66
2022/09/28 08:33:12;;;;;;;16.88;12.25;;;;;;;22.00;59.39;95998.56;5086440;28;20130;-66
2022/09/28 08:35:40;;;;;;;12.43;9.98;;;;;;;21.74;59.21;95907.06;5087620;28;20095;-66
2022/09/28 08:38:07;;;;;;;11.93;9.45;;;;;;;22.11;59.21;95931.16;5086522;28;20068;-66
2022/09/28 08:40:43;;;;;;;10.43;9.38;;;;;;;21.89;59.54;95867.78;5086488;28;20079;-67
2022/09/28 08:43:28;;;;;;;12.77;9.40;;;;;;;23.00;58.42;96009.69;5088230;28;20127;-69
2022/09/28 08:45:58;;;;;;;13.27;9.43;;;;;;;23.14;59.06;96006.19;5088029;28;20165;-64
2022/09/28 08:48:46;;;;;;;11.55;8.77;;;;;;;22.72;57.34;95957.38;5088120;28;20082;-66
2022/09/28 08:51:32;;;;;;;11.68;9.27;;;;;;;23.09;56.74;96004.00;5087919;28;20087;-66
2022/09/28 08:54:06;;;;;;;13.38;8.73;;;;;;;22.57;56.81;95922.63;5087549;28;20114;-66
2022/09/28 08:56:49;;;;;;;8.98;6.78;;;;;;;23.18;56.45;96001.13;5087486;28;20066;-66
2022/09/28 08:59:23;;;;;;;7.30;6.60;;;;;;;22.78;58.35;95938.56;5086338;28;20048;-66
2022/09/28 09:01:59;;;;;;;11.55;7.80;;;;;;;23.48;57.38;95997.22;5087501;28;20052;-65
2022/09/28 09:04:26;;;;;;;8.98;7.10;;;;;;;23.21;56.91;95961.41;5087163;28;20585;-65
2022/09/28 09:07:02;;;;;;;5.95;5.45;;;;;;;23.58;55.03;95998.75;5087293;28;20561;-65
2022/09/28 09:09:48;;;;;;;6.40;5.85;;;;;;;23.70;54.66;95986.41;5086441;28;20135;-67
2022/09/28 09:12:27;;;;;;;6.15;5.55;;;;;;;23.47;55.07;95995.69;5087283;28;20558;-64
2022/09/28 09:15:11;;;;;;;6.18;5.65;;;;;;;23.47;54.88;95990.03;5086919;28;20435;-66
2022/09/28 09:18:25;;;;;;;7.15;5.85;;;;;;;23.95;52.27;95997.22;5085429;28;20083;-66
2022/09/28 09:20:57;;;;;;;15.65;5.50;;;;;;;24.15;50.49;95993.78;5043564;28;20080;-66
2022/09/28 09:23:54;;;;;;;4.38;4.05;;;;;;;24.03;50.41;95989.94;5027157;28;20136;-65
2022/09/28 09:26:38;;;;;;;4.45;4.05;;;;;;;23.77;50.37;95997.34;5069287;28;20059;-69
2022/09/28 09:29:26;;;;;;;6.32;4.20;;;;;;;23.56;49.20;95992.78;5086138;28;20051;-66
2022/09/28 09:32:15;;;;;;;3.80;3.50;;;;;;;23.52;49.25;95992.19;5086920;28;20453;-69
2022/09/28 09:34:51;;;;;;;21.52;6.10;;;;;;;23.84;50.05;95982.84;5084910;28;20059;-73
2022/09/28 09:37:36;;;;;;;4.05;3.70;;;;;;;24.07;47.63;95993.38;5086539;28;20083;-71
2022/09/28 09:40:15;;;;;;;6.53;4.72;;;;;;;24.23;47.62;95983.66;5064763;28;20048;-70
2022/09/28 09:43:04;;;;;;;5.03;3.88;;;;;;;23.78;47.18;95908.41;5081023;28;20502;-70
2022/09/28 09:45:46;;;;;;;5.22;4.30;;;;;;;24.04;46.99;95960.41;5091208;28;20090;-66
2022/09/28 09:48:28;;;;;;;5.25;4.40;;;;;;;24.16;46.69;95956.50;5089450;28;20060;-65
2022/09/28 09:51:05;;;;;;;4.65;4.35;;;;;;;24.26;45.53;95932.53;5098465;28;20048;-59
2022/09/28 09:53:39;;;;;;;5.97;4.68;;;;;;;24.64;44.42;95986.22;5106652;28;20141;-74
2022/09/28 09:56:21;;;;;;;5.50;5.07;;;;;;;24.60;44.78;95985.63;5105024;28;20051;-64
2022/09/28 09:58:52;;;;;;;4.78;4.40;;;;;;;23.84;45.07;95884.63;5086869;28;20048;-63
2022/09/28 10:01:31;;;;;;;4.28;4.07;;;;;;;24.50;44.84;95974.91;5085163;28;20109;-64
2022/09/28 10:03:58;;;;;;;5.28;4.90;;;;;;;24.10;46.60;95927.31;5086455;28;20048;-64
2022/09/28 10:06:30;;;;;;;5.35;4.88;;;;;;;24.42;45.80;95968.81;5086804;28;20056;-70
2022/09/28 10:09:08;;;;;;;4.40;4.10;;;;;;;24.32;45.21;95963.75;5085393;28;20117;-70
2022/09/28 10:11:41;;;;;;;8.07;4.82;;;;;;;23.75;47.08;95881.09;5085659;28;20090;-62
2022/09/28 10:14:13;;;;;;;4.75;4.45;;;;;;;24.17;48.67;95926.94;5086275;28;20298;-68
2022/09/28 10:16:41;;;;;;;8.27;4.70;;;;;;;24.05;46.81;95905.38;5086381;28;20666;-61
2022/09/28 10:19:12;;;;;;;6.55;4.60;;;;;;;24.32;47.44;95922.06;5086222;28;20067;-68
2022/09/28 10:21:41;;;;;;;5.18;4.70;;;;;;;24.13;47.19;95917.88;5084358;28;20176;-68
2022/09/28 10:24:16;;;;;;;5.43;5.00;;;;;;;24.67;47.17;95945.63;5086192;28;20479;-67
2022/09/28 10:26:48;;;;;;;6.28;4.68;;;;;;;25.11;44.77;95949.16;5086078;28;20427;-65
2022/09/28 10:29:19;;;;;;;5.68;5.18;;;;;;;24.85;43.92;95866.06;5083620;28;20047;-65
2022/09/28 10:31:49;;;;;;;4.88;4.57;;;;;;;23.18;43.28;95616.84;5083798;28;20048;-69
2022/09/28 10:34:18;;;;;;;5.93;5.43;;;;;;;25.69;42.80;95933.25;5085918;28;20056;-72
2022/09/28 10:36:58;;;;;;;5.63;5.13;;;;;;;25.94;43.62;95938.19;5085347;28;20437;-71
2022/09/28 10:39:28;;;;;;;5.57;5.18;;;;;;;26.15;43.22;95932.00;5084457;28;20072;-68
2022/09/28 10:41:57;;;;;;;4.93;4.60;;;;;;;26.35;42.59;95905.63;5083371;28;20514;-70
2022/09/28 10:44:24;;;;;;;4.72;4.47;;;;;;;26.33;40.10;95868.44;5084151;28;20067;-68
2022/09/28 10:47:15;;;;;;;6.07;4.90;;;;;;;26.52;38.60;95932.88;5085005;28;20044;-66
2022/09/28 10:49:46;;;;;;;5.03;4.57;;;;;;;26.48;38.09;95938.03;5084462;28;20113;-63
2022/09/28 10:52:41;;;;;;;5.60;4.38;;;;;;;26.34;37.59;95938.13;5082996;28;20052;-64
2022/09/28 10:55:20;;;;;;;4.72;4.32;;;;;;;25.89;38.06;95941.75;5082092;27;20060;-70
2022/09/28 10:57:47;;;;;;;6.50;5.00;;;;;;;25.60;37.10;95939.03;5082979;28;20116;-71
2022/09/28 11:00:31;;;;;;;5.68;5.15;;;;;;;25.31;38.97;95937.88;5083038;28;20124;-65
2022/09/28 11:02:59;;;;;;;4.80;4.40;;;;;;;25.05;39.40;95939.03;5084902;28;20083;-72
2022/09/28 11:05:27;;;;;;;5.47;4.90;;;;;;;24.86;38.64;95864.81;5082796;28;20889;-64
2022/09/28 11:07:55;;;;;;;4.47;4.20;;;;;;;25.48;37.26;95935.31;5084885;28;20503;-65
2022/09/28 11:10:32;;;;;;;6.25;5.63;;;;;;;25.43;38.10;95932.38;5082938;28;20281;-70
2022/09/28 11:12:59;;;;;;;4.85;4.00;;;;;;;24.88;39.00;95848.06;5084663;28;20134;-61
2022/09/28 11:15:30;;;;;;;5.35;4.20;;;;;;;24.93;38.54;95875.72;5083658;28;20052;-64
2022/09/28 11:18:18;;;;;;;4.78;4.38;;;;;;;24.62;38.41;95886.00;5084920;28;20494;-63
2022/09/28 11:20:45;;;;;;;4.93;4.53;;;;;;;25.12;39.16;95874.19;5084302;28;20117;-67
2022/09/28 11:23:21;;;;;;;4.43;4.13;;;;;;;25.40;38.72;95913.53;5084559;28;20134;-67
2022/09/28 11:26:01;;;;;;;4.88;4.13;;;;;;;25.58;38.46;95910.38;5083863;28;20525;-71
2022/09/28 11:28:31;;;;;;;5.25;4.72;;;;;;;25.42;38.46;95877.72;5083018;28;20131;-69
2022/09/28 11:30:59;;;;;;;5.15;4.75;;;;;;;25.25;38.12;95842.66;5082073;28;20052;-65
2022/09/28 11:33:35;;;;;;;4.47;4.18;;;;;;;25.78;37.49;95908.31;5082793;28;20080;-72
2022/09/28 11:36:15;;;;;;;5.57;5.07;;;;;;;25.81;37.32;95904.50;5082592;28;20131;-68
2022/09/28 11:39:10;;;;;;;5.75;4.40;;;;;;;25.85;37.63;95904.28;5083532;28;20059;-70
2022/09/28 11:41:49;;;;;;;6.68;5.10;;;;;;;25.91;37.10;95905.91;5082301;28;20044;-64
2022/09/28 11:44:43;;;;;;;8.60;4.38;;;;;;;25.88;37.44;95895.56;5082168;28;20067;-63
2022/09/28 11:47:27;;;;;;;4.55;4.15;;;;;;;25.85;38.31;95892.91;5084164;28;20517;-62
2022/09/28 11:49:55;;;;;;;4.88;4.65;;;;;;;25.83;38.07;95895.50;5082060;28;20052;-65
2022/09/28 11:52:31;;;;;;;5.18;4.70;;;;;;;25.00;37.37;95778.97;5083871;28;20681;-68
2022/09/28 11:55:16;;;;;;;5.97;4.38;;;;;;;26.18;36.81;95884.78;5083046;28;20589;-62
2022/09/28 11:57:47;;;;;;;5.10;4.63;;;;;;;24.44;37.31;95620.13;5080755;28;20059;-71
2022/09/28 12:00:19;;;;;;;4.70;4.22;;;;;;;26.30;36.33;95900.69;5079744;28;20526;-68